NCAR-RAP Real-Time Weather Data

Output produced by METARs form (17 October 2018  16:23 UTC)
found at http://weather.rap.ucar.edu/surface/
 
RJBE 171200Z 04008KT 9999 FEW045 BKN/// 19/10 Q1013
RJBE 171100Z 02006KT 9999 FEW045 BKN/// 19/10 Q1013
RJBE 171000Z 02010KT 9999 FEW025 SCT/// 19/11 Q1012
RJBE 170900Z 04008KT 9999 FEW025 BKN/// 20/10 Q1011
RJBE 170800Z 03006KT 350V060 9999 FEW025 SCT050 BKN/// 20/10 Q1012
RJBE 170700Z 01006KT 9999 FEW030 SCT040 BKN080 21/11 Q1011
RJBE 170600Z 01009KT 9999 FEW030 SCT045 BKN060 22/10 Q1010
RJBE 170500Z 24009KT 9999 FEW025 BKN045 BKN/// 22/12 Q1010
RJBE 170400Z 16009KT 9999 FEW025 BKN/// 22/13 Q1010
RJBE 170300Z 17008KT 9999 FEW025 BKN/// 22/14 Q1011
RJBE 170200Z 17007KT 9999 FEW025 BKN/// 21/13 Q1011
RJBE 170100Z 17005KT 9999 FEW025 BKN/// 21/14 Q1012
RJBE 170000Z 14003KT 100V190 9999 FEW020 SCT130 BKN/// 20/12 Q1012
RJBE 162300Z 08003KT 040V140 9999 FEW020 SCT120 BKN/// 19/11 Q1012
RJBE 162200Z 06005KT 9999 FEW025 SCT100 18/13 Q1011
RJBE 161200Z 04011KT 9999 FEW025 SCT120 BKN150 20/12 Q1010
RJBE 161100Z 03007KT 9999 FEW025 SCT050 BKN140 21/12 Q1010
RJBE 161000Z VRB02KT 9999 FEW025 SCT060 BKN130 21/11 Q1011
RJBE 160900Z 35005KT 9999 FEW030 SCT050 BKN130 21/11 Q1011
RJBE 160800Z 11005KT 9999 FEW030 SCT050 BKN140 22/12 Q1010
RJBE 160700Z 12006KT 9999 FEW030 BKN150 BKN/// 22/13 Q1010
RJBE 160600Z 12005KT 9999 FEW030 SCT150 BKN/// 22/13 Q1011
RJBE 160500Z 11005KT 9999 FEW030 SCT140 BKN/// 22/14 Q1011
RJBE 160400Z 09005KT 050V120 9999 FEW030 BKN140 BKN/// 21/13 Q1012
RJBE 160300Z 08008KT 9999 FEW030 SCT130 BKN/// 21/14 Q1013
RJBE 160200Z 06007KT 9999 FEW030 SCT140 BKN/// 20/14 Q1014
RJBE 160100Z 07009KT 9999 FEW025 SCT140 BKN/// 20/14 Q1014
RJBE 160000Z 07009KT 9999 FEW020 OVC/// 19/14 Q1015
RJBE 152300Z 07011KT 9999 FEW020 BKN/// 18/15 Q1015
RJBE 152200Z 07011KT 9999 FEW020 SCT170 BKN/// 18/14 Q1015
RJBE 151200Z 02003KT 9999 FEW035 SCT/// 19/15 Q1017
RJBE 151100Z 34002KT 9999 FEW025 SCT/// 19/14 Q1016
RJBE 151000Z 28003KT 9999 FEW025 BKN/// 19/13 Q1016
RJBE 150900Z 26003KT 9999 FEW025 BKN/// 20/13 Q1015
RJBE 150800Z 24004KT 9999 FEW025 BKN/// 21/14 Q1015
RJBE 150700Z 22004KT 9999 FEW030 BKN/// 21/14 Q1015
RJBE 150600Z 20005KT 9999 FEW030 BKN/// 22/15 Q1015
RJBE 150500Z 20005KT 9999 FEW030 BKN/// 22/15 Q1016